Terminal Aerodrome Forecast
Issued by NWS

Home | Current Version | Previous Version | Text Only | Print | Product List | Glossary On
Versions: 1 2 3 4 5 6 7 8 9 10 11 12 13 14 15 16 17 18 19 20 21 22 23 24 25
329
FTUS43 KBIS 281131
TAFDIK
TAF
KDIK 281131Z 2812/2912 15006KT 2SM RA BR BKN005 OVC015
     FM281300 12009KT 5SM -SHRA BR OVC008
     FM281500 10009KT P6SM VCTS OVC015CB
     FM282000 08007KT P6SM BKN040
     FM290400 10004KT P6SM SCT250=

USA.gov is the U.S. government's official web portal to all federal, state and local government web resources and services.